Terminal Aerodrome Forecast
Issued by NWS Sterling, VA

Current Version | Previous Version | Graphics & Text | Print | Product List | Glossary On
Versions: 1 2 3 4 5 6 7 8 9 10 11 12 13 14 15 16
334
FTUS41 KLWX 101136
TAFMRB
TAF
KMRB 101136Z 1012/1112 27013KT P6SM OVC040
     FM101500 28013G22KT P6SM OVC040
     FM102100 28011KT P6SM BKN030
     FM110400 28012G21KT P6SM SCT090=

USA.gov is the U.S. government's official web portal to all federal, state and local government web resources and services.